Time;durP1;ratioP1;P1;durP2;ratioP2;P2;SDS_P1;SDS_P2;PMS_P1;PMS_P2;Temp;Humidity;BMP_temperature;BMP_pressure;BME280_temperature;BME280_humidity;BME280_pressure;Samples;Min_cycle;Max_cycle;Signal;HPM_P1;HPM_P2
2023/01/10 00:02:25;;;;;;;2.28;1.30;;;;;;;;;;6064237;23;20026;-89
2023/01/10 00:04:52;;;;;;;2.33;1.40;;;;;;;;;;6066519;23;20015;-89
2023/01/10 00:07:19;;;;;;;2.33;1.20;;;;;;;;;;6039299;23;20019;-89
2023/01/10 00:09:46;;;;;;;2.47;1.13;;;;;;;;;;6064983;23;20030;-89
2023/01/10 00:15:07;;;;;;;3.22;2.00;;;;;;;;;;6053595;23;20046;-89
2023/01/10 00:17:38;;;;;;;2.10;1.20;;;;;;;;;;6039981;23;20011;-89
2023/01/10 00:20:06;;;;;;;4.75;0.98;;;;;;;;;;6040095;23;20033;-89
2023/01/10 00:22:36;;;;;;;1.35;1.15;;;;;;;;;;6065864;23;20029;-89
2023/01/10 00:25:04;;;;;;;1.42;1.00;;;;;;;;;;6016248;23;20023;-89
2023/01/10 00:27:33;;;;;;;2.50;2.17;;;;;;;;;;6041372;23;20025;-89
2023/01/10 00:30:09;;;;;;;1.77;1.20;;;;;;;;;;6040041;23;20021;-89
2023/01/10 00:32:40;;;;;;;3.50;1.52;;;;;;;;;;6040457;23;20471;-88
2023/01/10 00:35:10;;;;;;;1.77;1.15;;;;;;;;;;6040919;23;20023;-89
2023/01/10 00:37:38;;;;;;;2.13;0.90;;;;;;;;;;6064167;23;20014;-88
2023/01/10 00:40:10;;;;;;;3.03;1.33;;;;;;;;;;6039686;23;20077;-88
2023/01/10 00:45:25;;;;;;;1.60;1.50;;;;;;;;;;6075878;23;20015;-87
2023/01/10 00:47:54;;;;;;;2.80;1.42;;;;;;;;;;6087382;23;20011;-88
2023/01/10 00:50:24;;;;;;;2.67;1.38;;;;;;;;;;6038587;23;20211;-88
2023/01/10 00:52:51;;;;;;;1.50;1.33;;;;;;;;;;6076008;23;20463;-88
2023/01/10 00:55:18;;;;;;;2.63;1.80;;;;;;;;;;6040517;23;20356;-88
2023/01/10 00:57:45;;;;;;;5.60;3.65;;;;;;;;;;6075458;23;20447;-88
2023/01/10 01:00:16;;;;;;;2.50;1.77;;;;;;;;;;6037636;23;20023;-88
2023/01/10 01:02:43;;;;;;;3.20;1.92;;;;;;;;;;6050650;23;20022;-88
2023/01/10 01:05:14;;;;;;;1.90;1.50;;;;;;;;;;6075820;23;20392;-87
2023/01/10 01:07:41;;;;;;;1.35;1.25;;;;;;;;;;6065585;23;20011;-88
2023/01/10 01:10:28;;;;;;;3.05;1.70;;;;;;;;;;6064562;23;20030;-88
2023/01/10 01:12:57;;;;;;;3.15;1.55;;;;;;;;;;6073605;23;20019;-88
2023/01/10 01:15:25;;;;;;;2.67;2.00;;;;;;;;;;6065038;23;20015;-88
2023/01/10 01:17:55;;;;;;;2.25;1.70;;;;;;;;;;6065692;23;20339;-88
2023/01/10 01:20:26;;;;;;;2.38;1.60;;;;;;;;;;6065894;23;20026;-88
2023/01/10 01:22:53;;;;;;;2.67;1.75;;;;;;;;;;6039773;23;20094;-88
2023/01/10 01:25:23;;;;;;;2.70;1.73;;;;;;;;;;6088207;23;20011;-88
2023/01/10 01:27:53;;;;;;;3.38;2.20;;;;;;;;;;6065112;23;20011;-88
2023/01/10 01:30:20;;;;;;;4.93;1.50;;;;;;;;;;6064421;23;20019;-88
2023/01/10 01:32:48;;;;;;;2.45;1.65;;;;;;;;;;6087879;23;20022;-88
2023/01/10 01:35:15;;;;;;;2.20;1.80;;;;;;;;;;6064769;23;20030;-88
2023/01/10 01:37:44;;;;;;;1.92;1.17;;;;;;;;;;6065490;23;20018;-88
2023/01/10 01:40:15;;;;;;;3.63;2.42;;;;;;;;;;6072862;23;20023;-88
2023/01/10 01:42:43;;;;;;;4.40;2.15;;;;;;;;;;6064730;23;20351;-88
2023/01/10 01:45:40;;;;;;;2.35;1.58;;;;;;;;;;6076009;23;20015;-88
2023/01/10 01:48:21;;;;;;;1.77;1.40;;;;;;;;;;5986253;24;20016;-88
2023/01/10 01:50:54;;;;;;;1.67;1.58;;;;;;;;;;6054922;23;20019;-88
2023/01/10 01:53:26;;;;;;;2.10;1.38;;;;;;;;;;6064038;23;20031;-88
2023/01/10 01:55:56;;;;;;;4.88;1.75;;;;;;;;;;6065846;23;20015;-88
2023/01/10 01:58:26;;;;;;;5.13;2.20;;;;;;;;;;6073096;23;20038;-88
2023/01/10 02:00:57;;;;;;;3.10;1.80;;;;;;;;;;6071065;23;20025;-88
2023/01/10 02:03:24;;;;;;;2.42;1.70;;;;;;;;;;6061173;23;20026;-88
2023/01/10 02:05:54;;;;;;;5.90;2.20;;;;;;;;;;6075330;23;20015;-88
2023/01/10 02:08:23;;;;;;;2.38;1.67;;;;;;;;;;6039477;23;20448;-87
2023/01/10 02:10:53;;;;;;;2.50;1.35;;;;;;;;;;6039328;23;20030;-88
2023/01/10 02:13:26;;;;;;;2.05;1.52;;;;;;;;;;6073050;23;20038;-87
2023/01/10 02:15:56;;;;;;;4.90;1.75;;;;;;;;;;6073353;23;20026;-87
2023/01/10 02:18:24;;;;;;;2.50;1.20;;;;;;;;;;6064649;23;20015;-88
2023/01/10 02:21:07;;;;;;;2.53;1.73;;;;;;;;;;6063584;23;20019;-88
2023/01/10 02:24:05;;;;;;;1.40;0.90;;;;;;;;;;6074422;23;20030;-88
2023/01/10 02:26:54;;;;;;;0.93;0.70;;;;;;;;;;6088174;23;20026;-87
2023/01/10 02:29:52;;;;;;;4.00;1.00;;;;;;;;;;6072852;23;20019;-88
2023/01/10 02:32:36;;;;;;;2.05;0.90;;;;;;;;;;6067014;23;20015;-88
2023/01/10 02:35:13;;;;;;;1.80;0.80;;;;;;;;;;6077016;23;20348;-88
2023/01/10 02:37:46;;;;;;;1.17;0.88;;;;;;;;;;6075979;23;20015;-88
2023/01/10 02:40:22;;;;;;;2.40;1.10;;;;;;;;;;6072598;23;20015;-88
2023/01/10 02:42:58;;;;;;;1.02;0.90;;;;;;;;;;6074830;23;20022;-88
2023/01/10 02:45:30;;;;;;;1.38;1.13;;;;;;;;;;6076175;23;20018;-88
2023/01/10 02:47:59;;;;;;;2.53;1.88;;;;;;;;;;6065625;23;20022;-88
2023/01/10 02:50:45;;;;;;;2.08;1.02;;;;;;;;;;6071989;23;20022;-88
2023/01/10 02:53:17;;;;;;;0.90;0.85;;;;;;;;;;6050163;23;20015;-88
2023/01/10 02:55:59;;;;;;;2.15;1.02;;;;;;;;;;6041394;23;20356;-88
2023/01/10 02:58:39;;;;;;;1.85;1.20;;;;;;;;;;6097956;23;20351;-88
2023/01/10 03:01:09;;;;;;;1.23;0.90;;;;;;;;;;6039094;23;20023;-88
2023/01/10 03:03:42;;;;;;;1.42;0.90;;;;;;;;;;6076563;23;20015;-88
2023/01/10 03:06:17;;;;;;;1.02;0.85;;;;;;;;;;6022618;23;20096;-88
2023/01/10 03:08:53;;;;;;;2.20;0.82;;;;;;;;;;6076070;23;20451;-88
2023/01/10 03:11:39;;;;;;;1.60;0.80;;;;;;;;;;6069968;23;20019;-88
2023/01/10 03:14:14;;;;;;;2.65;1.10;;;;;;;;;;6076048;23;20360;-88
2023/01/10 03:16:44;;;;;;;2.22;0.88;;;;;;;;;;6050028;23;20019;-88
2023/01/10 03:19:17;;;;;;;2.92;1.33;;;;;;;;;;6074869;23;20015;-88
2023/01/10 03:21:47;;;;;;;2.95;0.90;;;;;;;;;;6065846;23;20019;-88
2023/01/10 03:24:18;;;;;;;1.83;0.82;;;;;;;;;;6064345;23;20472;-88
2023/01/10 03:26:49;;;;;;;1.25;1.00;;;;;;;;;;6065313;23;20023;-88
2023/01/10 03:29:19;;;;;;;2.50;1.10;;;;;;;;;;6074384;23;20018;-88
2023/01/10 03:31:53;;;;;;;1.38;1.27;;;;;;;;;;6067642;23;20019;-89
2023/01/10 03:34:22;;;;;;;1.55;1.15;;;;;;;;;;6066511;23;20014;-88
2023/01/10 03:36:53;;;;;;;1.38;1.10;;;;;;;;;;6040979;23;20494;-88
2023/01/10 03:39:27;;;;;;;0.93;0.80;;;;;;;;;;6074619;23;20018;-88
2023/01/10 03:41:59;;;;;;;2.88;1.73;;;;;;;;;;6065160;23;20500;-88
2023/01/10 03:44:42;;;;;;;1.75;1.27;;;;;;;;;;6076030;23;20034;-88
2023/01/10 03:47:13;;;;;;;4.15;1.13;;;;;;;;;;6063738;23;20018;-88
2023/01/10 03:49:47;;;;;;;2.63;1.10;;;;;;;;;;6075147;23;20018;-88
2023/01/10 03:52:16;;;;;;;4.93;1.40;;;;;;;;;;6132565;23;20013;-84
2023/01/10 03:54:47;;;;;;;2.63;1.52;;;;;;;;;;6153360;23;20029;-84
2023/01/10 03:57:19;;;;;;;1.58;0.88;;;;;;;;;;6162203;23;20062;-84
2023/01/10 03:59:46;;;;;;;2.33;0.90;;;;;;;;;;6150670;23;20029;-84
2023/01/10 04:02:13;;;;;;;1.40;0.93;;;;;;;;;;6154205;23;20014;-84
2023/01/10 04:04:41;;;;;;;3.65;1.20;;;;;;;;;;6153895;23;20024;-84
2023/01/10 04:07:09;;;;;;;2.15;1.40;;;;;;;;;;6127254;23;20025;-83
2023/01/10 04:09:36;;;;;;;1.70;1.45;;;;;;;;;;6151195;23;20372;-84
2023/01/10 04:12:04;;;;;;;2.00;1.50;;;;;;;;;;6153523;23;20025;-84
2023/01/10 04:14:32;;;;;;;2.70;2.00;;;;;;;;;;6125731;23;20017;-83
2023/01/10 04:16:59;;;;;;;3.15;1.60;;;;;;;;;;6128052;23;20013;-83
2023/01/10 04:19:29;;;;;;;2.58;1.17;;;;;;;;;;6101547;23;20028;-84
2023/01/10 04:21:56;;;;;;;5.85;2.53;;;;;;;;;;6153152;23;20328;-84
2023/01/10 04:24:25;;;;;;;6.00;2.70;;;;;;;;;;6163168;23;20013;-84
2023/01/10 04:26:52;;;;;;;5.82;2.30;;;;;;;;;;6162253;23;20326;-84
2023/01/10 04:29:22;;;;;;;3.60;1.63;;;;;;;;;;6152961;23;20353;-84
2023/01/10 04:31:49;;;;;;;6.15;2.40;;;;;;;;;;6152519;23;20013;-84
2023/01/10 04:34:18;;;;;;;4.88;2.75;;;;;;;;;;6126837;23;20021;-84
2023/01/10 04:36:49;;;;;;;4.55;2.15;;;;;;;;;;6126631;23;20033;-84
2023/01/10 04:39:16;;;;;;;3.50;2.35;;;;;;;;;;6150134;23;20346;-86
2023/01/10 04:41:45;;;;;;;3.65;2.00;;;;;;;;;;6151728;23;20013;-84
2023/01/10 04:44:12;;;;;;;1.98;1.73;;;;;;;;;;6126007;23;20028;-84
2023/01/10 04:46:39;;;;;;;2.50;1.67;;;;;;;;;;6124541;23;20025;-84
2023/01/10 04:49:07;;;;;;;3.42;1.92;;;;;;;;;;6150750;23;20013;-84
2023/01/10 04:51:34;;;;;;;3.65;2.22;;;;;;;;;;6125655;23;20018;-84
2023/01/10 04:54:06;;;;;;;3.20;2.03;;;;;;;;;;6126856;23;20469;-84
2023/01/10 04:56:36;;;;;;;3.63;2.05;;;;;;;;;;6153437;23;20342;-84
2023/01/10 04:59:05;;;;;;;8.77;2.65;;;;;;;;;;6101205;23;20025;-84
2023/01/10 05:01:34;;;;;;;2.20;1.63;;;;;;;;;;6151550;23;20025;-84
2023/01/10 05:04:06;;;;;;;;;;;;;;;;;;6161795;23;20374;-84
2023/01/10 05:06:33;;;;;;;2.33;1.83;;;;;;;;;;6152104;23;19917;-84
2023/01/10 05:09:00;;;;;;;5.60;1.90;;;;;;;;;;6150777;23;20036;-85
2023/01/10 05:11:27;;;;;;;5.22;2.42;;;;;;;;;;6156442;23;20021;-84
2023/01/10 05:13:57;;;;;;;7.95;3.53;;;;;;;;;;6166791;23;20040;-83
2023/01/10 05:16:28;;;;;;;4.03;2.38;;;;;;;;;;6127375;23;20022;-83
2023/01/10 05:18:55;;;;;;;5.63;3.55;;;;;;;;;;6152280;23;20017;-83
2023/01/10 05:21:22;;;;;;;2.92;1.85;;;;;;;;;;6150556;23;20017;-84
2023/01/10 05:23:50;;;;;;;8.80;2.05;;;;;;;;;;6152790;23;20024;-84
2023/01/10 05:26:22;;;;;;;2.50;2.30;;;;;;;;;;6152540;23;20014;-84
2023/01/10 05:28:51;;;;;;;4.03;3.00;;;;;;;;;;6160152;23;20487;-84
2023/01/10 05:31:24;;;;;;;5.18;3.42;;;;;;;;;;6128374;23;20018;-84
2023/01/10 05:33:52;;;;;;;9.73;3.15;;;;;;;;;;6170074;23;20017;-84
2023/01/10 05:36:20;;;;;;;6.35;3.30;;;;;;;;;;6158395;23;20045;-87
2023/01/10 05:38:47;;;;;;;5.35;3.75;;;;;;;;;;6129000;23;20021;-87
2023/01/10 05:41:14;;;;;;;8.30;3.10;;;;;;;;;;6153501;23;20040;-86
2023/01/10 05:43:41;;;;;;;4.35;3.75;;;;;;;;;;6119460;23;20388;-86
2023/01/10 05:46:09;;;;;;;5.93;2.85;;;;;;;;;;6143031;23;20025;-86
2023/01/10 05:48:36;;;;;;;5.43;4.22;;;;;;;;;;6119099;23;20025;-87
2023/01/10 05:51:05;;;;;;;4.53;2.92;;;;;;;;;;6142003;23;20022;-87
2023/01/10 05:53:33;;;;;;;8.60;3.67;;;;;;;;;;6144563;23;20018;-87
2023/01/10 05:56:02;;;;;;;6.47;3.80;;;;;;;;;;6143991;23;20021;-86
2023/01/10 05:58:29;;;;;;;5.50;3.40;;;;;;;;;;6143050;23;20018;-86
2023/01/10 06:00:59;;;;;;;8.93;3.42;;;;;;;;;;6140467;23;20439;-85
2023/01/10 06:03:26;;;;;;;5.25;3.38;;;;;;;;;;6096416;23;20663;-86
2023/01/10 06:05:56;;;;;;;6.25;3.53;;;;;;;;;;6145754;23;20269;-86
2023/01/10 06:08:25;;;;;;;4.25;2.75;;;;;;;;;;6146500;23;20028;-86
2023/01/10 06:10:55;;;;;;;9.25;3.40;;;;;;;;;;6143821;23;20024;-86
2023/01/10 06:13:22;;;;;;;3.88;3.40;;;;;;;;;;6145944;23;20439;-87
2023/01/10 06:15:50;;;;;;;4.85;3.53;;;;;;;;;;6121300;23;20024;-86
2023/01/10 06:18:19;;;;;;;6.72;3.28;;;;;;;;;;6104930;23;20018;-86
2023/01/10 06:20:46;;;;;;;4.82;2.90;;;;;;;;;;6160921;23;20014;-86
2023/01/10 06:23:14;;;;;;;5.82;3.40;;;;;;;;;;6156120;23;20462;-86
2023/01/10 06:25:51;;;;;;;6.20;3.78;;;;;;;;;;6164569;23;20029;-86
2023/01/10 06:28:18;;;;;;;6.03;3.83;;;;;;;;;;6155441;23;20025;-86
2023/01/10 06:30:46;;;;;;;6.70;4.07;;;;;;;;;;6136096;23;20013;-86
2023/01/10 06:33:13;;;;;;;7.40;3.58;;;;;;;;;;6147392;23;20018;-86
2023/01/10 06:35:40;;;;;;;5.55;3.75;;;;;;;;;;6129061;23;20029;-86
2023/01/10 06:38:07;;;;;;;6.95;3.42;;;;;;;;;;6120449;23;20025;-86
2023/01/10 06:40:37;;;;;;;11.50;3.40;;;;;;;;;;6142335;23;20037;-86
2023/01/10 06:43:05;;;;;;;8.68;3.70;;;;;;;;;;6145044;23;20017;-87
2023/01/10 06:45:33;;;;;;;11.05;4.75;;;;;;;;;;6102987;23;20022;-86
2023/01/10 06:48:00;;;;;;;5.80;3.00;;;;;;;;;;6127355;23;20040;-87
2023/01/10 06:59:22;;;;;;;4.32;2.63;;;;;;;;;;6153227;23;20021;-87
2023/01/10 07:01:51;;;;;;;7.30;3.40;;;;;;;;;;6114391;23;20017;-87
2023/01/10 07:04:21;;;;;;;7.93;4.10;;;;;;;;;;6149479;23;20587;-88
2023/01/10 07:06:53;;;;;;;14.82;6.32;;;;;;;;;;6124427;23;20025;-90
2023/01/10 07:09:21;;;;;;;7.07;4.00;;;;;;;;;;6099810;23;20017;-88
2023/01/10 07:11:48;;;;;;;11.30;2.95;;;;;;;;;;6124583;23;20017;-89
2023/01/10 07:14:18;;;;;;;9.50;3.55;;;;;;;;;;6126412;23;20025;-90
2023/01/10 07:16:45;;;;;;;13.18;5.50;;;;;;;;;;6101273;23;20025;-89
2023/01/10 07:19:16;;;;;;;10.77;4.03;;;;;;;;;;6165928;23;20013;-90
2023/01/10 07:21:51;;;;;;;6.65;2.50;;;;;;;;;;6130568;23;20627;-93
2023/01/10 07:24:22;;;;;;;11.02;4.55;;;;;;;;;;6131725;23;20025;-88
2023/01/10 07:26:55;;;;;;;5.25;4.18;;;;;;;;;;6132827;23;20018;-92
2023/01/10 07:29:24;;;;;;;5.05;4.20;;;;;;;;;;6129859;23;20497;-90
2023/01/10 07:31:57;;;;;;;11.57;5.38;;;;;;;;;;6108405;23;20031;-89
2023/01/10 07:34:32;;;;;;;5.63;3.30;;;;;;;;;;6106331;23;20024;-90
2023/01/10 07:37:01;;;;;;;6.13;3.17;;;;;;;;;;6137817;23;20018;-89
2023/01/10 07:39:33;;;;;;;12.52;3.35;;;;;;;;;;6106099;23;20032;-89
2023/01/10 07:42:03;;;;;;;8.02;3.70;;;;;;;;;;6105053;23;20025;-88
2023/01/10 07:44:40;;;;;;;9.43;3.10;;;;;;;;;;6131969;23;20641;-89
2023/01/10 07:47:08;;;;;;;10.63;4.55;;;;;;;;;;6130985;23;20027;-89
2023/01/10 07:49:49;;;;;;;13.80;3.83;;;;;;;;;;6131089;23;20014;-88
2023/01/10 07:52:24;;;;;;;8.52;3.83;;;;;;;;;;6106608;23;20021;-89
2023/01/10 07:54:54;;;;;;;10.30;4.25;;;;;;;;;;6140365;23;20021;-88
2023/01/10 07:57:23;;;;;;;12.70;3.90;;;;;;;;;;6133159;23;20350;-89
2023/01/10 07:59:52;;;;;;;10.98;3.15;;;;;;;;;;6132191;23;20357;-88
2023/01/10 08:02:20;;;;;;;8.98;5.28;;;;;;;;;;6107530;23;20031;-91
2023/01/10 08:04:48;;;;;;;10.55;4.03;;;;;;;;;;6141793;23;20025;-89
2023/01/10 08:07:15;;;;;;;4.97;3.38;;;;;;;;;;6123737;23;20035;-89
2023/01/10 08:09:43;;;;;;;8.73;3.15;;;;;;;;;;6140155;23;20021;-88
2023/01/10 08:12:10;;;;;;;4.00;2.67;;;;;;;;;;6105065;23;20017;-88
2023/01/10 08:14:38;;;;;;;10.48;4.00;;;;;;;;;;6130569;23;20029;-88
2023/01/10 08:17:09;;;;;;;6.22;2.90;;;;;;;;;;6117512;23;20017;-90
2023/01/10 08:19:40;;;;;;;5.47;2.60;;;;;;;;;;6129304;23;20033;-88
2023/01/10 08:22:11;;;;;;;11.15;5.18;;;;;;;;;;6128533;23;20028;-88
2023/01/10 08:24:39;;;;;;;6.50;3.72;;;;;;;;;;6128369;23;20029;-88
2023/01/10 08:27:08;;;;;;;4.78;3.13;;;;;;;;;;6128502;23;20028;-88
2023/01/10 08:29:36;;;;;;;6.68;3.45;;;;;;;;;;6130396;23;20018;-90
2023/01/10 08:32:17;;;;;;;7.93;2.95;;;;;;;;;;6104447;23;20017;-89
2023/01/10 08:34:47;;;;;;;9.02;4.43;;;;;;;;;;6102903;23;20017;-89
2023/01/10 08:37:17;;;;;;;17.38;3.00;;;;;;;;;;6154954;23;20025;-88
2023/01/10 08:39:48;;;;;;;8.48;2.35;;;;;;;;;;6130016;23;20365;-89
2023/01/10 08:42:18;;;;;;;12.85;4.35;;;;;;;;;;6154507;23;20028;-88
2023/01/10 08:44:53;;;;;;;16.95;8.38;;;;;;;;;;6128545;23;20025;-88
2023/01/10 08:47:24;;;;;;;7.68;4.80;;;;;;;;;;6129682;23;20025;-90
2023/01/10 08:49:51;;;;;;;8.95;4.63;;;;;;;;;;6128441;23;20018;-91
2023/01/10 08:52:24;;;;;;;5.70;4.35;;;;;;;;;;6105339;23;20014;-88
2023/01/10 08:54:56;;;;;;;6.70;2.95;;;;;;;;;;6130426;23;20025;-88
2023/01/10 08:57:26;;;;;;;4.82;3.70;;;;;;;;;;6130198;23;20397;-89
2023/01/10 08:59:55;;;;;;;9.55;2.80;;;;;;;;;;6130154;23;20052;-89
2023/01/10 09:02:26;;;;;;;3.70;2.85;;;;;;;;;;6104783;23;20017;-90
2023/01/10 09:04:58;;;;;;;5.40;3.05;;;;;;;;;;6128818;23;20023;-91
2023/01/10 09:07:30;;;;;;;5.85;3.85;;;;;;;;;;6129151;23;20025;-91
2023/01/10 09:10:08;;;;;;;7.28;3.22;;;;;;;;;;6130615;23;20022;-88
2023/01/10 09:12:54;;;;;;;10.00;4.00;;;;;;;;;;6154904;23;20017;-88
2023/01/10 09:15:32;;;;;;;20.67;4.18;;;;;;;;;;6129754;23;20097;-89
2023/01/10 09:18:05;;;;;;;7.80;4.00;;;;;;;;;;6128835;23;20020;-88
2023/01/10 09:20:37;;;;;;;8.23;3.13;;;;;;;;;;6131112;23;20230;-88
2023/01/10 09:23:09;;;;;;;8.75;4.25;;;;;;;;;;6129077;23;20025;-89
2023/01/10 09:25:39;;;;;;;6.22;3.70;;;;;;;;;;6131598;23;20013;-90
2023/01/10 09:28:07;;;;;;;8.98;3.38;;;;;;;;;;6108523;23;20041;-89
2023/01/10 09:30:39;;;;;;;11.85;4.00;;;;;;;;;;6111418;23;20028;-89
2023/01/10 09:33:13;;;;;;;15.00;3.45;;;;;;;;;;6136083;23;20032;-89
2023/01/10 09:35:46;;;;;;;;;;;;;;;;;;6106583;23;20025;-90
2023/01/10 09:38:21;;;;;;;11.82;4.30;;;;;;;;;;6129236;23;19924;-90
2023/01/10 09:41:03;;;;;;;8.95;3.65;;;;;;;;;;6129071;23;20022;-91
2023/01/10 09:43:49;;;;;;;13.02;4.18;;;;;;;;;;6129402;23;20017;-91
2023/01/10 09:46:26;;;;;;;11.48;3.88;;;;;;;;;;6127423;23;20014;-88
2023/01/10 09:49:05;;;;;;;5.75;3.13;;;;;;;;;;6165346;23;20024;-89
2023/01/10 10:08:42;;;;;;;9.93;3.38;;;;;;;;;;6152006;23;20018;-91
2023/01/10 10:11:39;;;;;;;11.88;3.92;;;;;;;;;;6150298;23;20180;-91
2023/01/10 10:14:16;;;;;;;13.70;3.83;;;;;;;;;;6125039;23;20496;-92
2023/01/10 10:16:54;;;;;;;6.05;3.63;;;;;;;;;;6116663;23;20026;-91
2023/01/10 10:19:29;;;;;;;12.57;3.83;;;;;;;;;;6101828;23;20018;-91
2023/01/10 10:22:03;;;;;;;8.93;3.17;;;;;;;;;;6102235;23;20457;-90
2023/01/10 10:24:37;;;;;;;;;;;;;;;;;;6129767;23;20020;-92
2023/01/10 10:27:13;;;;;;;10.32;3.85;;;;;;;;;;6125878;23;19927;-91
2023/01/10 10:29:58;;;;;;;5.10;3.00;;;;;;;;;;6102382;23;20032;-91
2023/01/10 10:32:51;;;;;;;10.00;3.90;;;;;;;;;;6124893;23;20472;-91
2023/01/10 10:35:28;;;;;;;10.18;3.63;;;;;;;;;;6126330;23;20022;-90
2023/01/10 10:38:19;;;;;;;10.07;4.10;;;;;;;;;;6101549;23;20044;-91
2023/01/10 10:40:49;;;;;;;22.27;4.65;;;;;;;;;;6116458;23;20025;-91
2023/01/10 10:43:20;;;;;;;12.32;4.03;;;;;;;;;;6150770;23;20018;-90
2023/01/10 10:45:51;;;;;;;13.40;6.45;;;;;;;;;;6126932;23;20017;-91
2023/01/10 10:48:22;;;;;;;8.00;4.35;;;;;;;;;;6106436;23;20033;-90
2023/01/10 10:50:59;;;;;;;9.57;4.30;;;;;;;;;;6104245;23;20477;-90
2023/01/10 10:53:27;;;;;;;12.00;4.60;;;;;;;;;;6151636;23;20013;-90
2023/01/10 10:55:58;;;;;;;10.20;5.03;;;;;;;;;;6102705;23;20033;-90
2023/01/10 10:58:30;;;;;;;21.52;7.43;;;;;;;;;;6120459;23;20430;-91
2023/01/10 11:00:59;;;;;;;16.35;6.82;;;;;;;;;;6128000;23;20014;-92
2023/01/10 11:03:36;;;;;;;12.35;5.28;;;;;;;;;;6128226;23;20393;-91
2023/01/10 11:06:06;;;;;;;15.27;7.28;;;;;;;;;;6127686;23;20022;-91
2023/01/10 11:08:36;;;;;;;14.68;8.18;;;;;;;;;;6128368;23;20033;-91
2023/01/10 11:11:15;;;;;;;17.67;6.72;;;;;;;;;;6124442;23;20018;-90
2023/01/10 11:13:47;;;;;;;15.65;6.80;;;;;;;;;;6128133;23;20021;-91
2023/01/10 11:16:29;;;;;;;12.23;5.88;;;;;;;;;;6112173;23;20025;-92
2023/01/10 11:19:19;;;;;;;8.60;4.97;;;;;;;;;;6127018;23;20017;-91
2023/01/10 11:21:52;;;;;;;11.40;5.18;;;;;;;;;;6119361;23;20017;-90
2023/01/10 11:24:27;;;;;;;17.23;5.45;;;;;;;;;;6128397;23;20014;-91
2023/01/10 11:26:58;;;;;;;13.55;5.78;;;;;;;;;;6162805;23;20333;-90
2023/01/10 11:29:27;;;;;;;21.58;5.70;;;;;;;;;;6126943;23;20024;-91
2023/01/10 11:31:57;;;;;;;15.85;5.88;;;;;;;;;;6103200;23;20017;-91
2023/01/10 11:34:28;;;;;;;12.05;6.30;;;;;;;;;;6127219;23;20033;-91
2023/01/10 11:36:59;;;;;;;12.88;5.97;;;;;;;;;;6102879;23;20022;-91
2023/01/10 11:39:30;;;;;;;13.02;4.72;;;;;;;;;;6126097;23;20472;-92
2023/01/10 11:42:28;;;;;;;11.60;5.15;;;;;;;;;;6127822;23;20021;-91
2023/01/10 11:44:55;;;;;;;10.02;5.05;;;;;;;;;;6103489;23;20238;-92
2023/01/10 11:47:23;;;;;;;11.32;4.20;;;;;;;;;;6126834;23;20013;-91
2023/01/10 11:49:51;;;;;;;11.40;5.40;;;;;;;;;;6103038;23;20487;-92
2023/01/10 11:52:23;;;;;;;7.88;4.45;;;;;;;;;;6102697;23;20022;-91
2023/01/10 11:54:53;;;;;;;11.50;3.72;;;;;;;;;;6103460;23;20018;-92
2023/01/10 11:57:26;;;;;;;8.43;4.13;;;;;;;;;;6162190;23;20028;-91
2023/01/10 11:59:55;;;;;;;8.52;3.03;;;;;;;;;;6127025;23;20036;-92
2023/01/10 12:02:24;;;;;;;12.98;4.82;;;;;;;;;;6117408;23;20018;-92
2023/01/10 12:04:57;;;;;;;11.00;4.20;;;;;;;;;;6152685;23;20480;-91
2023/01/10 12:07:25;;;;;;;12.20;4.85;;;;;;;;;;6103018;23;20024;-91
2023/01/10 12:09:57;;;;;;;14.02;4.18;;;;;;;;;;6103085;23;20013;-92
2023/01/10 12:12:29;;;;;;;8.13;3.45;;;;;;;;;;6126368;23;20024;-91
2023/01/10 12:15:20;;;;;;;8.00;4.55;;;;;;;;;;6104643;23;20025;-91
2023/01/10 12:17:49;;;;;;;14.05;4.82;;;;;;;;;;6078503;23;20018;-91
2023/01/10 12:20:18;;;;;;;11.07;4.93;;;;;;;;;;6128313;23;20465;-91
2023/01/10 12:22:48;;;;;;;7.47;3.92;;;;;;;;;;6127511;23;20026;-91
2023/01/10 12:25:19;;;;;;;11.77;4.85;;;;;;;;;;6129001;23;20029;-92
2023/01/10 12:27:49;;;;;;;19.92;5.60;;;;;;;;;;6162221;23;20318;-92
2023/01/10 12:30:25;;;;;;;11.43;3.80;;;;;;;;;;6152396;23;20014;-92
2023/01/10 12:32:53;;;;;;;;;;;;;;;;;;6127222;23;20056;-91
2023/01/10 12:35:24;;;;;;;11.77;3.97;;;;;;;;;;6102907;23;19923;-91
2023/01/10 12:37:57;;;;;;;5.75;3.70;;;;;;;;;;6102606;23;20022;-91
2023/01/10 12:40:31;;;;;;;14.30;4.07;;;;;;;;;;6150255;23;20025;-92
2023/01/10 12:46:11;;;;;;;12.95;4.57;;;;;;;;;;6177579;23;20104;-93
2023/01/10 12:48:47;;;;;;;7.88;3.30;;;;;;;;;;6132682;23;20053;-92
2023/01/10 12:51:17;;;;;;;17.45;4.40;;;;;;;;;;6181298;23;20053;-92
2023/01/10 12:53:46;;;;;;;8.82;2.60;;;;;;;;;;6144974;23;20014;-92
2023/01/10 12:56:16;;;;;;;7.63;3.20;;;;;;;;;;6140904;23;20017;-92
2023/01/10 12:58:50;;;;;;;8.10;3.67;;;;;;;;;;6123929;23;20022;-92
2023/01/10 13:04:10;;;;;;;9.13;3.22;;;;;;;;;;6134175;23;20070;-92
2023/01/10 13:06:42;;;;;;;14.38;4.28;;;;;;;;;;6103590;23;20027;-92
2023/01/10 13:09:14;;;;;;;7.97;3.53;;;;;;;;;;6151538;23;20029;-92
2023/01/10 13:11:49;;;;;;;10.35;3.58;;;;;;;;;;6126350;23;20048;-92
2023/01/10 13:14:23;;;;;;;8.13;3.85;;;;;;;;;;6103405;23;20017;-92
2023/01/10 13:16:56;;;;;;;13.88;4.50;;;;;;;;;;6128142;23;20021;-92
2023/01/10 13:19:26;;;;;;;5.43;3.53;;;;;;;;;;6115002;23;20076;-92
2023/01/10 13:22:20;;;;;;;8.70;3.85;;;;;;;;;;6129128;23;20022;-92
2023/01/10 13:24:58;;;;;;;9.13;3.63;;;;;;;;;;6131620;23;20021;-92
2023/01/10 13:27:38;;;;;;;9.25;3.55;;;;;;;;;;6114776;23;20017;-92
2023/01/10 13:30:28;;;;;;;11.27;3.05;;;;;;;;;;6138514;23;20014;-91
2023/01/10 13:33:05;;;;;;;9.18;3.70;;;;;;;;;;6112841;23;20021;-92
2023/01/10 13:38:28;;;;;;;9.52;2.83;;;;;;;;;;6102216;23;20040;-92
2023/01/10 13:41:05;;;;;;;13.55;4.15;;;;;;;;;;6129621;23;20040;-91
2023/01/10 13:44:00;;;;;;;8.13;2.78;;;;;;;;;;6127483;23;20017;-93
2023/01/10 13:46:51;;;;;;;17.13;3.22;;;;;;;;;;6129477;23;20033;-92
2023/01/10 13:49:45;;;;;;;8.95;3.60;;;;;;;;;;6104679;23;20017;-92
2023/01/10 13:55:35;;;;;;;9.23;3.33;;;;;;;;;;6128304;23;20029;-93
2023/01/10 14:02:27;;;;;;;;;;;;;;;;;;6154737;23;20373;-92
2023/01/10 14:04:19;;;;;;;12.65;3.30;;;;;;;;;;6128097;23;20026;-92
2023/01/10 14:06:54;;;;;;;8.95;3.95;;;;;;;;;;6127777;23;20018;-91
2023/01/10 14:09:43;;;;;;;6.53;2.85;;;;;;;;;;6126809;23;20024;-92
2023/01/10 14:18:20;;;;;;;7.53;3.40;;;;;;;;;;6148202;23;20021;-91
2023/01/10 14:23:42;;;;;;;13.25;4.70;;;;;;;;;;6125446;23;20021;-91
2023/01/10 14:26:17;;;;;;;4.78;2.53;;;;;;;;;;6128833;23;20477;-92
2023/01/10 14:28:47;;;;;;;6.38;2.97;;;;;;;;;;6128838;23;20349;-91
2023/01/10 14:31:19;;;;;;;5.85;3.50;;;;;;;;;;6117302;23;20028;-92
2023/01/10 14:33:48;;;;;;;12.95;4.78;;;;;;;;;;6134358;23;20026;-92
2023/01/10 14:36:21;;;;;;;11.65;3.88;;;;;;;;;;6128774;23;20040;-91
2023/01/10 14:38:50;;;;;;;7.72;3.80;;;;;;;;;;6118603;23;20017;-91
2023/01/10 14:44:09;;;;;;;11.48;3.65;;;;;;;;;;6128934;23;20021;-92
2023/01/10 14:46:52;;;;;;;9.95;3.65;;;;;;;;;;6104830;23;20033;-92
2023/01/10 14:49:23;;;;;;;5.93;3.33;;;;;;;;;;6128780;23;20013;-92
2023/01/10 14:54:38;;;;;;;8.75;2.90;;;;;;;;;;6150331;23;20018;-92
2023/01/10 14:57:17;;;;;;;7.63;2.45;;;;;;;;;;6153701;23;20495;-92
2023/01/10 14:59:45;;;;;;;5.65;2.50;;;;;;;;;;6104323;23;20017;-91
2023/01/10 15:02:21;;;;;;;7.28;2.47;;;;;;;;;;6128630;23;20042;-92
2023/01/10 15:04:55;;;;;;;11.98;3.45;;;;;;;;;;6103987;23;20018;-93
2023/01/10 15:07:25;;;;;;;;;;;;;;;;;;6105943;23;20515;-93
2023/01/10 15:09:57;;;;;;;15.70;3.25;;;;;;;;;;6128950;23;19921;-91
2023/01/10 15:12:32;;;;;;;7.00;3.63;;;;;;;;;;6108682;23;20026;-92
2023/01/10 15:15:05;;;;;;;8.82;4.15;;;;;;;;;;6129814;23;20342;-92
2023/01/10 15:17:36;;;;;;;25.60;10.88;;;;;;;;;;6154371;23;20305;-92
2023/01/10 15:20:06;;;;;;;11.35;5.35;;;;;;;;;;6128009;23;20036;-91
2023/01/10 15:22:39;;;;;;;13.40;6.10;;;;;;;;;;6128609;23;20017;-91
2023/01/10 15:25:18;;;;;;;12.23;5.55;;;;;;;;;;6105728;23;20066;-92
2023/01/10 15:27:47;;;;;;;9.02;4.40;;;;;;;;;;6104896;23;20018;-92
2023/01/10 15:30:24;;;;;;;8.15;5.22;;;;;;;;;;6129291;23;20021;-92
2023/01/10 15:32:56;;;;;;;7.47;3.88;;;;;;;;;;6128293;23;20021;-92
2023/01/10 15:35:28;;;;;;;7.30;3.35;;;;;;;;;;6149843;23;20022;-94
2023/01/10 15:37:59;;;;;;;8.90;3.45;;;;;;;;;;6104406;23;20018;-92
2023/01/10 15:40:31;;;;;;;5.85;3.83;;;;;;;;;;6127640;23;20021;-92
2023/01/10 15:43:23;;;;;;;6.38;3.55;;;;;;;;;;6152363;23;20017;-92
2023/01/10 15:45:54;;;;;;;6.55;3.92;;;;;;;;;;6103526;23;20497;-91
2023/01/10 15:48:33;;;;;;;6.65;3.35;;;;;;;;;;6152460;23;20029;-92
2023/01/10 16:02:43;;;;;;;9.07;2.67;;;;;;;;;;6172699;23;20345;-88
2023/01/10 16:05:20;;;;;;;10.93;3.88;;;;;;;;;;6132982;23;20469;-89
2023/01/10 16:07:48;;;;;;;6.47;3.05;;;;;;;;;;6132217;23;20021;-86
2023/01/10 16:10:20;;;;;;;9.60;4.55;;;;;;;;;;6131788;23;20020;-89
2023/01/10 16:15:36;;;;;;;13.98;9.25;;;;;;;;;;6107031;23;20017;-88
2023/01/10 16:18:09;;;;;;;5.32;3.53;;;;;;;;;;6134088;23;20018;-89
2023/01/10 16:20:42;;;;;;;10.50;5.00;;;;;;;;;;6132902;23;20025;-90
2023/01/10 16:23:15;;;;;;;10.30;5.38;;;;;;;;;;6167257;23;20018;-89
2023/01/10 16:25:45;;;;;;;7.35;3.55;;;;;;;;;;6133471;23;20021;-90
2023/01/10 16:28:15;;;;;;;5.28;3.92;;;;;;;;;;6107903;23;20015;-88